Flight Track Log - Related Links

Times and Time Zones

All times are in EDT time to prevent confusion due to time zone crossing. See the VH-SFM flight status page for this flight to view local times or setup timezone preferences in your user account.

Time Position Orientation Groundspeed Altitude Reporting Facility
EDT Latitude Longitude Course Direction KTS MPH feet Rate Location/Type
Sun 01:37:25 AM -33.7370 151.0685 38° Northeast 98 113 1,700  Level Aus ATC (RADAR)
Sun 01:37:46 AM -33.7306 151.0746 38° Northeast 90 104 2,100 536 Climbing Aus ATC (RADAR)
Sun 01:38:21 AM -33.7182 151.0850 35° Northeast 94 108 2,200 71 Climbing Aus ATC (RADAR)
Sun 01:39:10 AM -33.6990 151.1002 33° Northeast 97 112 2,200 71 Level Aus ATC (RADAR)
Sun 01:39:45 AM -33.6970 151.1211 83° East 104 120 2,300 54 Climbing Aus ATC (RADAR)
Sun 01:41:01 AM -33.6994 151.1669 94° East 109 125 2,300 -86 Level Aus ATC (RADAR)
Sun 01:42:05 AM -33.6996 151.2061 90° East 105 121 2,100 -225 Descending Aus ATC (RADAR)
Sun 01:42:21 AM -33.6993 151.2147 88° East 101 116 2,000 -480 Descending Aus ATC (RADAR)
Sun 01:42:55 AM -33.6994 151.2356 90° East 102 117 1,700 -383 Descending Aus ATC (RADAR)
Sun 01:43:55 AM -33.7036 151.2692 99° East 103 119 1,400 -120 Descending Aus ATC (RADAR)
Sun 01:44:35 AM -33.7136 151.2879 123° Southeast 100 115 1,500 114 Climbing Aus ATC (RADAR)
Sun 01:45:40 AM -33.7346 151.2967 161° South 101 116 1,600 60 Climbing Aus ATC (RADAR)
Sun 01:46:15 AM -33.7492 151.2864 211° Southwest 105 121 1,600  Level Aus ATC (RADAR)
Sun 01:47:20 AM -33.7779 151.2663 210° Southwest 109 125 1,600  Level Aus ATC (RADAR)
Sun 01:47:35 AM -33.7844 151.2619 209° Southwest 108 124 1,600  Level Aus ATC (RADAR)
Sun 01:48:10 AM -33.7996 151.2506 212° Southwest 109 125 1,600 -61 Level Aus ATC (RADAR)
Sun 01:49:14 AM -33.8277 151.2296 212° Southwest 108 124 1,500 -61 Descending Aus ATC (RADAR)
Sun 01:49:49 AM -33.8404 151.2205 211° Southwest 93 107 1,500  Level Aus ATC (RADAR)
Sun 01:50:49 AM -33.8453 151.2256 139° Southeast 82 94 1,500  Level Aus ATC (RADAR)
Sun 01:51:29 AM -33.8537 151.2242 188° South 84 97 1,500 63 Level Aus ATC (RADAR)
Sun 01:52:24 AM -33.8523 151.2190 288° West 90 104 1,600 86 Climbing Aus ATC (RADAR)
Sun 01:52:39 AM -33.8530 151.2274 96° East 91 105 1,600 120 Level Aus ATC (RADAR)
Sun 01:53:14 AM -33.8450 151.2436 59° Northeast 93 107 1,700  Climbing Aus ATC (RADAR)
Sun 01:54:14 AM -33.8302 151.2728 59° Northeast 103 119 1,600 -63 Descending Aus ATC (RADAR)
Sun 01:54:49 AM -33.8229 151.2906 64° Northeast 99 114 1,600 -63 Level Aus ATC (RADAR)
Sun 01:55:49 AM -33.8133 151.3223 70° East 102 117 1,500 -420 Descending Aus ATC (RADAR)
Sun 01:56:29 AM -33.8196 151.3092 240° Southwest 106 122 900 -900 Descending Aus ATC (RADAR)
Sun 01:59:58 AM -33.8893 151.2737 204° Southwest 500 -115 Descending Aus ATC (Calculated)
Sun 02:01:00 AM -33.9132 151.2610 204° Southwest  Level FlightAware Approximate
Sun 02:02:00 AM -33.9364 151.2487 204° Southwest  Level FlightAware Approximate
Sun 02:03:00 AM -33.9595 151.2365 204° Southwest  Level FlightAware Approximate
Sun 02:04:00 AM -33.9827 151.2242 204° Southwest  Level FlightAware Approximate
Sun 02:05:00 AM -34.0059 151.2120 204° Southwest  Level FlightAware Approximate
Sun 02:06:00 AM -34.0290 151.1997 204° Southwest  Level FlightAware Approximate
Sun 02:06:47 AM -34.0711 151.1248 110° East 500  Level Aus ATC (Calculated)
Sun 02:08:00 AM -34.0818 151.1597 110° East  Level FlightAware Approximate
Sun 02:09:00 AM -34.0906 151.1883 110° East  Level FlightAware Approximate
Sun 02:10:00 AM -34.0818 151.1597 290° West  Level FlightAware Approximate
Sun 02:11:00 AM -34.0906 151.1883 110° East  Level FlightAware Approximate
Sun 02:12:00 AM -34.0947 151.1588 224° Southwest  Level FlightAware Approximate
Sun 02:13:00 AM -34.1130 151.1376 224° Southwest  Level FlightAware Approximate
Sun 02:14:00 AM -34.1312 151.1165 224° Southwest  Level FlightAware Approximate
Sun 02:15:00 AM -34.1495 151.0953 224° Southwest  Level FlightAware Approximate
Sun 02:15:15 AM -34.2527 150.9753 360° North 3,000  Level Aus ATC (Calculated)
Sun 02:17:00 AM -34.2084 150.9753 North  Level FlightAware Approximate
Sun 02:18:00 AM -34.2337 150.9753 180° South  Level FlightAware Approximate
Sun 02:19:00 AM -34.2590 150.9753 180° South  Level FlightAware Approximate
Sun 02:20:00 AM -34.2337 150.9753 North  Level FlightAware Approximate
Sun 02:21:00 AM -34.2520 150.9727 289° West  Level FlightAware Approximate
Sun 02:22:00 AM -34.2438 150.9437 289° West  Level FlightAware Approximate
Sun 02:22:39 AM -34.2000 150.7883 109° East 3,000  Level Aus ATC (Calculated)
Sun 02:23:00 AM -34.2357 150.9147 289° West  Level FlightAware Approximate
Sun 02:24:00 AM -34.2275 150.8858 289° West  Level FlightAware Approximate
Sun 02:25:00 AM -34.1405 150.7883 North  Level FlightAware Approximate
Sun 02:25:42 AM -34.1250 150.7417 137° Southeast 1,800  Level Aus ATC (Calculated)
Sun 02:26:00 AM -34.1658 150.7883 180° South  Level FlightAware Approximate
Sun 02:27:00 AM -34.1020 150.7701 333° Northwest  Level Estimated
Sun 02:28:00 AM -34.1197 150.7482 226° Southwest  Level FlightAware Approximate
Sun 02:29:00 AM -34.1374 150.7264 226° Southwest  Level FlightAware Approximate
Sun 02:30:00 AM -34.1197 150.7482 33° Northeast  Level Estimated
Sun 02:31:00 AM -34.0983 150.7646 32° Northeast  Level FlightAware Approximate
Sun 02:32:00 AM -34.0770 150.7810 32° Northeast  Level FlightAware Approximate
Sun 02:33:00 AM -34.0556 150.7974 32° Northeast  Level FlightAware Approximate
Sun 02:33:15 AM -33.9367 150.8883 82° East  Level Aus ATC (Calculated)
Sun 02:34:46 AM -33.9244 150.9884 291° West  Level Aus ATC (Calculated)
Sun 02:35:00 AM -33.8924 150.8883 North  Level FlightAware Approximate
Sun 02:36:00 AM -33.9244 150.9883 262° West  Level Estimated
Sun 02:37:00 AM -33.9244 150.9883 262° West  Level Estimated
Sun 02:38:00 AM -33.9244 150.9883 82° East  Level Estimated
Sun 02:39:00 AM -33.9244 150.9883 55° Northeast  Level Estimated
Sun 02:40:00 AM -33.9244 150.9883 55° Northeast  Level Estimated
Sun 02:41:00 AM -33.9244 150.9883 55° Northeast  Level Estimated
Sun 02:42:00 AM -33.9244 150.9883 82° East  Level Estimated
Sun 02:43:00 AM -33.9244 150.9883 82° East  Level Estimated
Sun 02:44:00 AM -33.9244 150.9883 82° East  Level Estimated
Sun 02:45:00 AM -33.9244 150.9883 82° East  Level Estimated
Sun 02:46:00 AM -33.9244 150.9883 82° East  Level Estimated
Sun 02:47:00 AM -33.9244 150.9883 82° East  Level Estimated
Sun 02:48:00 AM -33.9244 150.9883 82° East  Level Estimated
Sun 02:49:00 AM -33.9244 150.9883 82° East  Level Estimated

Login

Don't have an account? Register now (free) for customized features, flight alerts, and more!